createdAt,value
2019-01-29T00:01:50.800Z,86.60
2019-01-29T00:05:55.432Z,87.10
2019-01-29T00:09:59.970Z,87.00
2019-01-29T00:14:04.803Z,86.70
2019-01-29T00:18:09.335Z,86.60
2019-01-29T00:22:13.855Z,86.90
2019-01-29T00:26:18.362Z,87.10
2019-01-29T00:30:24.567Z,87.10
2019-01-29T00:34:29.370Z,87.70
2019-01-29T00:38:33.889Z,87.40
2019-01-29T00:42:38.459Z,87.90
2019-01-29T00:46:42.983Z,86.90
2019-01-29T00:50:47.515Z,87.70
2019-01-29T00:54:52.036Z,87.40
2019-01-29T00:58:56.562Z,87.30
2019-01-29T01:03:01.097Z,87.30
2019-01-29T01:07:05.725Z,87.20
2019-01-29T01:11:10.906Z,87.40
2019-01-29T01:15:15.750Z,87.40
2019-01-29T01:19:20.323Z,87.50
2019-01-29T01:23:24.827Z,87.30
2019-01-29T01:27:29.343Z,87.00
2019-01-29T01:31:33.873Z,87.40
2019-01-29T01:35:38.395Z,87.50
2019-01-29T01:39:42.959Z,87.60
2019-01-29T01:43:47.528Z,87.50
2019-01-29T01:47:52.073Z,87.80
2019-01-29T01:51:56.626Z,87.60
2019-01-29T01:56:01.166Z,87.50
2019-01-29T02:00:06.779Z,87.80
2019-01-29T02:04:11.308Z,87.50
2019-01-29T02:08:15.833Z,87.00
2019-01-29T02:12:20.350Z,86.90
2019-01-29T02:16:24.891Z,86.90
2019-01-29T02:20:29.411Z,86.90
2019-01-29T02:24:33.888Z,86.90
2019-01-29T02:28:38.422Z,87.10
2019-01-29T02:32:42.949Z,86.90
2019-01-29T02:55:24.991Z,85.70
2019-01-29T03:07:34.983Z,85.70
2019-01-29T03:11:39.526Z,86.20
2019-01-29T03:18:29.429Z,85.40
2019-01-29T03:22:33.947Z,85.80
2019-01-29T03:42:38.160Z,85.50
2019-01-29T04:16:32.130Z,85.20
2019-01-29T04:20:36.631Z,85.80
2019-01-29T04:24:41.175Z,85.80
2019-01-29T04:28:55.971Z,85.40
2019-01-29T05:02:23.106Z,85.50
2019-01-29T05:06:27.583Z,86.10
2019-01-29T05:10:32.119Z,85.90
2019-01-29T05:14:36.664Z,85.90
2019-01-29T05:18:41.198Z,85.80
2019-01-29T05:22:45.834Z,86.00
2019-01-29T05:26:50.321Z,86.00
2019-01-29T05:30:54.876Z,86.30
2019-01-29T05:34:59.410Z,86.60
2019-01-29T05:39:06.351Z,86.40
2019-01-29T05:43:10.839Z,86.50
2019-01-29T05:54:17.579Z,85.60
2019-01-29T06:09:59.823Z,85.40
2019-01-29T07:05:37.840Z,85.70
2019-01-29T07:15:40.425Z,85.70
2019-01-29T08:55:47.827Z,85.80
2019-01-29T10:02:34.583Z,85.50
2019-01-29T10:10:32.712Z,85.30
2019-01-29T10:14:37.223Z,85.10
2019-01-29T10:18:41.751Z,86.60
2019-01-29T10:22:46.287Z,85.60
2019-01-29T10:26:50.819Z,85.60
2019-01-29T10:30:55.715Z,85.80
2019-01-29T10:36:15.339Z,84.90
2019-01-29T10:40:21.508Z,85.90
2019-01-29T10:46:54.102Z,85.10
2019-01-29T10:50:58.809Z,85.90
2019-01-29T11:02:09.388Z,85.30
2019-01-29T11:11:08.096Z,85.20
2019-01-29T11:15:16.242Z,85.10
2019-01-29T11:26:11.919Z,85.20
2019-01-29T11:55:20.450Z,84.60
2019-01-29T12:02:54.154Z,84.50
2019-01-29T12:10:44.224Z,84.20
2019-01-29T12:14:56.004Z,84.90
2019-01-29T12:18:59.638Z,84.00
2019-01-29T12:23:04.513Z,83.90
2019-01-29T12:27:09.093Z,84.70
2019-01-29T12:34:16.614Z,84.10
2019-01-29T12:38:21.105Z,84.70
2019-01-29T12:42:25.672Z,83.50
2019-01-29T12:46:30.214Z,84.10
2019-01-29T12:50:34.935Z,84.50
2019-01-29T12:54:39.474Z,84.50
2019-01-29T12:58:43.971Z,84.50
2019-01-29T13:02:48.518Z,84.00
2019-01-29T13:06:53.040Z,84.20
2019-01-29T13:10:57.570Z,83.10
2019-01-29T13:15:02.101Z,84.00
2019-01-29T13:19:06.607Z,84.20
2019-01-29T13:23:11.124Z,83.90
2019-01-29T13:27:15.673Z,82.80
2019-01-29T13:31:20.215Z,82.70
2019-01-29T13:35:26.755Z,83.30
2019-01-29T13:39:31.260Z,83.40
2019-01-29T13:43:35.827Z,83.00
2019-01-29T13:47:40.360Z,82.90
2019-01-29T13:51:44.895Z,83.40
2019-01-29T13:55:49.423Z,83.20
2019-01-29T13:59:53.919Z,82.70
2019-01-29T14:04:05.965Z,82.70
2019-01-29T14:08:04.876Z,82.50
2019-01-29T14:12:09.629Z,82.60
2019-01-29T14:16:15.003Z,81.90
2019-01-29T14:20:19.550Z,81.90
2019-01-29T14:24:24.080Z,81.20
2019-01-29T14:28:28.599Z,82.00
2019-01-29T14:32:33.142Z,81.70
2019-01-29T14:36:37.663Z,81.60
2019-01-29T14:40:42.151Z,81.50
2019-01-29T14:44:50.667Z,81.10
2019-01-29T14:48:55.211Z,81.40
2019-01-29T14:52:59.745Z,81.60
2019-01-29T14:57:04.371Z,81.60
2019-01-29T15:01:09.079Z,81.60
2019-01-29T15:05:13.691Z,81.50
2019-01-29T15:09:18.211Z,81.20
2019-01-29T15:13:22.849Z,81.70
2019-01-29T15:17:33.331Z,81.80
2019-01-29T15:21:38.272Z,81.80
2019-01-29T15:26:51.287Z,81.00
2019-01-29T15:30:55.826Z,81.80
2019-01-29T15:39:39.745Z,81.30
2019-01-29T15:43:44.303Z,82.20
2019-01-29T15:47:48.857Z,82.10
2019-01-29T16:05:56.822Z,81.20
2019-01-29T16:11:22.138Z,81.20
2019-01-29T16:17:31.658Z,81.10
2019-01-29T16:21:36.204Z,81.80
2019-01-29T16:25:41.239Z,82.50
2019-01-29T16:29:45.784Z,82.20
2019-01-29T16:33:51.409Z,82.90
2019-01-29T16:37:55.891Z,82.10
2019-01-29T16:48:56.067Z,81.40
2019-01-29T17:02:58.239Z,81.50
2019-01-29T17:08:13.242Z,81.60
2019-01-29T17:12:20.805Z,82.30
2019-01-29T17:16:25.338Z,82.00
2019-01-29T17:20:32.259Z,81.90
2019-01-29T17:32:37.706Z,81.20
2019-01-29T18:17:10.563Z,81.20
2019-01-29T18:30:13.379Z,81.30
2019-01-29T18:34:17.915Z,81.80
2019-01-29T18:38:22.467Z,82.00
2019-01-29T18:42:27.033Z,82.20
2019-01-29T18:46:31.524Z,82.40
2019-01-29T18:50:36.044Z,82.60
2019-01-29T19:24:11.951Z,81.80
2019-01-29T20:00:46.697Z,82.30
2019-01-29T20:04:53.657Z,83.00
2019-01-29T20:12:34.278Z,82.30
2019-01-29T21:21:12.203Z,81.80
2019-01-29T21:52:59.319Z,81.60
2019-01-29T21:57:03.814Z,82.30
2019-01-29T22:01:08.355Z,82.30
2019-01-29T22:05:12.927Z,82.40
2019-01-29T22:09:17.451Z,82.50
2019-01-29T22:13:22.082Z,82.80
2019-01-29T22:17:26.614Z,82.80
2019-01-29T22:21:31.140Z,82.80
2019-01-29T22:25:35.926Z,82.30
2019-01-29T22:29:40.603Z,82.50
2019-01-29T22:33:45.118Z,82.40
2019-01-29T22:37:49.652Z,82.30
2019-01-29T22:41:54.200Z,82.70
2019-01-29T22:45:58.847Z,82.50
2019-01-29T22:50:03.339Z,82.30
2019-01-29T22:54:07.871Z,82.40
2019-01-29T22:58:12.402Z,82.70
2019-01-29T23:02:16.923Z,82.70
2019-01-29T23:06:31.527Z,82.60
2019-01-29T23:10:36.043Z,82.50
2019-01-29T23:14:40.572Z,82.70
2019-01-29T23:18:45.090Z,82.70
2019-01-29T23:22:49.632Z,82.70
2019-01-29T23:26:54.180Z,82.70
2019-01-29T23:30:58.712Z,82.70
2019-01-29T23:35:03.286Z,82.60
2019-01-29T23:39:09.519Z,82.80
2019-01-29T23:43:14.087Z,83.90
2019-01-29T23:47:18.578Z,83.20
2019-01-29T23:51:23.112Z,83.20
2019-01-29T23:55:27.663Z,83.20
2019-01-29T23:59:32.202Z,83.30
